createdAt,value
2022-11-14T00:06:48.939Z,208.10
2022-11-14T00:17:11.240Z,216.03
2022-11-14T00:27:34.733Z,204.90
2022-11-14T00:37:56.358Z,220.07
2022-11-14T00:48:19.554Z,214.20
2022-11-14T00:58:41.508Z,211.57
2022-11-14T01:09:05.306Z,208.43
2022-11-14T01:19:27.231Z,220.53
2022-11-14T01:29:50.464Z,216.70
2022-11-14T01:40:13.801Z,197.37
2022-11-14T01:50:37.305Z,211.67
2022-11-14T02:01:00.014Z,204.07
2022-11-14T02:11:23.740Z,205.57
2022-11-14T02:21:47.216Z,208.80
2022-11-14T02:32:10.886Z,204.50
2022-11-14T02:42:34.539Z,202.90
2022-11-14T02:52:56.654Z,201.00
2022-11-14T03:03:20.080Z,208.00
2022-11-14T03:13:42.309Z,209.00
2022-11-14T03:24:06.663Z,206.13
2022-11-14T03:34:28.735Z,211.90
2022-11-14T03:44:51.891Z,200.80
2022-11-14T03:55:13.905Z,196.47
2022-11-14T04:05:37.650Z,196.67
2022-11-14T04:16:00.411Z,191.17
2022-11-14T04:26:23.640Z,197.47
2022-11-14T04:36:45.576Z,192.20
2022-11-14T04:47:09.048Z,194.77
2022-11-14T04:57:31.027Z,197.73
2022-11-14T05:07:55.496Z,197.93
2022-11-14T05:18:17.317Z,200.13
2022-11-14T05:28:41.325Z,194.97
2022-11-14T05:39:04.451Z,193.07
2022-11-14T05:49:27.993Z,192.93
2022-11-14T05:59:50.198Z,187.33
2022-11-14T06:10:14.497Z,192.00
2022-11-14T06:20:37.452Z,201.90
2022-11-14T06:31:01.762Z,194.40
2022-11-14T06:41:25.052Z,190.07
2022-11-14T06:51:48.449Z,193.80
2022-11-14T07:02:20.507Z,208.10
2022-11-14T07:12:45.466Z,224.40
2022-11-14T07:23:07.271Z,201.80
2022-11-14T07:33:31.296Z,203.17
2022-11-14T07:43:52.988Z,193.03
2022-11-14T07:54:16.652Z,197.10
2022-11-14T08:04:38.824Z,205.20
2022-11-14T08:15:01.966Z,215.10
2022-11-14T08:25:24.194Z,195.37
2022-11-14T08:35:47.442Z,215.37
2022-11-14T08:46:11.028Z,207.83
2022-11-14T08:56:34.337Z,213.97
2022-11-14T09:06:56.462Z,207.93
2022-11-14T09:17:20.600Z,235.50
2022-11-14T09:27:42.480Z,201.60
2022-11-14T09:38:08.341Z,199.83
2022-11-14T09:48:32.613Z,205.93
2022-11-14T09:58:57.819Z,197.87
2022-11-14T10:09:39.169Z,205.63
2022-11-14T10:20:13.017Z,200.63
2022-11-14T10:30:41.700Z,203.00
2022-11-14T10:41:07.842Z,198.83
2022-11-14T10:51:38.279Z,208.10
2022-11-14T11:02:01.690Z,202.73
2022-11-14T11:12:27.132Z,200.00
2022-11-14T11:22:50.772Z,207.47
2022-11-14T11:33:24.982Z,208.43
2022-11-14T11:43:56.815Z,215.50
2022-11-14T11:54:22.025Z,209.17
2022-11-14T12:04:45.359Z,209.33
2022-11-14T12:15:19.269Z,204.33
2022-11-14T12:25:58.619Z,210.27
2022-11-14T12:36:20.650Z,209.27
2022-11-14T12:47:19.025Z,213.30
2022-11-14T12:57:51.010Z,203.27
2022-11-14T13:08:41.358Z,207.80
2022-11-14T13:19:34.300Z,213.23
2022-11-14T13:29:59.481Z,204.53
2022-11-14T13:40:29.960Z,209.13
2022-11-14T13:51:06.383Z,213.47
2022-11-14T14:02:03.520Z,209.30
2022-11-14T14:12:50.286Z,206.33
2022-11-14T14:23:28.739Z,224.80
2022-11-14T14:33:53.816Z,212.00
2022-11-14T14:44:25.861Z,216.80
2022-11-14T14:54:56.086Z,234.80
2022-11-14T15:05:24.800Z,217.40
2022-11-14T15:15:48.117Z,212.77
2022-11-14T15:26:17.830Z,219.23
2022-11-14T15:37:22.455Z,221.50
2022-11-14T15:47:44.383Z,214.37
2022-11-14T15:58:27.746Z,216.67
2022-11-14T16:08:50.836Z,224.40
2022-11-14T16:19:16.093Z,221.63
2022-11-14T16:29:37.967Z,223.77
2022-11-14T16:40:01.287Z,215.67
2022-11-14T16:50:23.298Z,220.87
2022-11-14T17:00:47.017Z,222.90
2022-11-14T17:11:12.100Z,235.57
2022-11-14T17:21:35.716Z,227.60
2022-11-14T17:31:58.200Z,230.07
2022-11-14T17:42:21.747Z,236.57
2022-11-14T17:52:43.526Z,225.87
2022-11-14T18:03:06.875Z,225.50
2022-11-14T18:13:28.612Z,224.43
2022-11-14T18:23:54.481Z,216.93
2022-11-14T18:34:16.875Z,234.43
2022-11-14T18:44:40.658Z,243.07
2022-11-14T18:55:04.230Z,256.83
2022-11-14T19:05:27.305Z,257.57
2022-11-14T19:15:49.333Z,242.30
2022-11-14T19:26:12.676Z,258.70
2022-11-14T19:47:18.664Z,229.70
2022-11-14T19:57:40.456Z,249.63
2022-11-14T20:08:04.203Z,242.13
2022-11-14T20:18:26.099Z,212.20
2022-11-14T20:28:52.894Z,278.57
2022-11-14T20:39:15.449Z,243.57
2022-11-14T20:49:38.993Z,226.83
2022-11-14T21:00:00.855Z,245.03
2022-11-14T21:10:41.717Z,277.03
2022-11-14T21:21:06.109Z,253.67
2022-11-14T21:31:33.406Z,286.43
2022-11-14T21:41:55.917Z,243.93
2022-11-14T21:52:19.600Z,242.30
2022-11-14T22:02:58.978Z,251.33
2022-11-14T22:13:22.484Z,249.23
2022-11-14T22:23:44.566Z,227.07
2022-11-14T22:34:08.163Z,233.70
2022-11-14T22:44:29.901Z,243.17
2022-11-14T22:54:53.361Z,278.00
2022-11-14T23:05:15.755Z,261.23
2022-11-14T23:15:39.143Z,262.13
2022-11-14T23:26:05.245Z,289.43
2022-11-14T23:36:28.268Z,256.70
2022-11-14T23:46:50.281Z,232.27
2022-11-14T23:57:13.841Z,236.27
